Time;durP1;ratioP1;P1;durP2;ratioP2;P2;SDS_P1;SDS_P2;PMS_P1;PMS_P2;Temp;Humidity;BMP_temperature;BMP_pressure;BME280_temperature;BME280_humidity;BME280_pressure;Samples;Min_cycle;Max_cycle;Signal;HPM_P1;HPM_P2
2021/03/10 00:00:24;;;;;;;22.08;14.85;;;102.90;2227.20;;;;;;5000039;28;20076;-71
2021/03/10 00:02:50;;;;;;;22.13;14.57;;;102.80;2227.20;;;;;;5006050;28;20026;-71
2021/03/10 00:05:16;;;;;;;25.70;16.95;;;102.70;2227.20;;;;;;4996466;28;20022;-70
2021/03/10 00:07:42;;;;;;;29.88;18.25;;;102.70;2227.20;;;;;;4994107;28;20037;-71
2021/03/10 00:10:10;;;;;;;29.35;19.27;;;102.70;2227.20;;;;;;5002909;28;20391;-71
2021/03/10 00:12:35;;;;;;;20.67;13.95;;;102.70;2227.20;;;;;;5006059;28;20050;-69
2021/03/10 00:15:03;;;;;;;19.20;13.50;;;102.70;2227.20;;;;;;4996175;28;20526;-70
2021/03/10 00:17:29;;;;;;;20.35;13.18;;;102.70;2227.20;;;;;;4999670;28;20021;-69
2021/03/10 00:19:55;;;;;;;20.00;13.57;;;102.70;2227.20;;;;;;4994222;28;20247;-72
2021/03/10 00:22:21;;;;;;;21.70;14.05;;;102.60;2227.20;;;;;;4994694;28;20030;-71
2021/03/10 00:24:46;;;;;;;19.08;12.48;;;102.50;2227.20;;;;;;4999843;28;20780;-70
2021/03/10 00:27:24;;;;;;;17.58;12.57;;;102.50;2227.20;;;;;;4996510;28;20391;-71
2021/03/10 00:29:52;;;;;;;45.38;24.38;;;102.50;2227.20;;;;;;4997884;28;20018;-71
2021/03/10 00:32:17;;;;;;;35.05;20.05;;;102.40;2227.20;;;;;;4995543;28;20050;-71
2021/03/10 00:34:43;;;;;;;18.75;12.55;;;77.70;2227.20;;;;;;4994950;28;20081;-73
2021/03/10 00:37:09;;;;;;;27.20;17.67;;;77.70;2227.20;;;;;;4999325;28;20017;-70
2021/03/10 00:39:35;;;;;;;31.92;19.98;;;77.70;2227.20;;;;;;5003210;28;20022;-71
2021/03/10 00:42:00;;;;;;;20.42;14.07;;;77.70;2227.20;;;;;;4997292;28;20057;-70
2021/03/10 00:44:26;;;;;;;19.60;12.93;;;77.60;2227.20;;;;;;4996576;28;20499;-71
2021/03/10 00:46:52;;;;;;;18.38;11.55;;;77.60;2227.20;;;;;;4994818;28;20057;-70
2021/03/10 00:49:17;;;;;;;19.50;12.30;;;77.50;2227.20;;;;;;4993572;28;20030;-70
2021/03/10 00:51:43;;;;;;;19.38;13.18;;;77.40;2227.20;;;;;;4996241;28;20030;-70
2021/03/10 00:54:09;;;;;;;20.88;13.13;;;77.40;2227.20;;;;;;5001246;28;20068;-70
2021/03/10 00:56:34;;;;;;;21.75;14.90;;;77.30;2227.20;;;;;;5013309;28;20026;-70
2021/03/10 00:59:00;;;;;;;24.92;18.10;;;77.30;2227.20;;;;;;5013092;28;20382;-69
2021/03/10 01:01:26;;;;;;;24.30;17.20;;;77.20;2227.20;;;;;;5013774;28;20030;-70
2021/03/10 01:03:51;;;;;;;23.23;16.08;;;77.10;2227.20;;;;;;5013675;28;20101;-71
2021/03/10 01:06:17;;;;;;;28.58;17.83;;;77.10;2227.20;;;;;;5013533;28;20072;-70
2021/03/10 01:08:43;;;;;;;25.63;15.20;;;77.10;2227.20;;;;;;5013408;28;20108;-70
2021/03/10 01:11:08;;;;;;;19.80;13.25;;;77.10;2227.20;;;;;;5012908;28;20529;-70
2021/03/10 01:13:34;;;;;;;17.35;11.40;;;77.10;2227.20;;;;;;5013096;28;20112;-69
2021/03/10 01:16:00;;;;;;;16.00;10.45;;;77.00;2227.20;;;;;;5012906;28;20022;-70
2021/03/10 01:18:26;;;;;;;15.32;10.50;;;77.00;2227.20;;;;;;5013179;28;20025;-69
2021/03/10 01:20:51;;;;;;;14.98;9.68;;;77.00;2227.20;;;;;;5012812;28;20032;-70
2021/03/10 01:23:17;;;;;;;13.63;9.48;;;77.00;2227.20;;;;;;5013154;28;20467;-70
2021/03/10 01:25:43;;;;;;;14.55;9.65;;;77.00;2227.20;;;;;;5012980;28;20022;-70
2021/03/10 01:28:09;;;;;;;15.00;9.73;;;77.00;2227.20;;;;;;5013148;28;20383;-70
2021/03/10 01:30:35;;;;;;;19.33;11.68;;;76.90;2227.20;;;;;;5014106;28;20026;-70
2021/03/10 01:33:01;;;;;;;14.65;10.07;;;76.90;2227.20;;;;;;5012129;28;20030;-73
2021/03/10 01:35:27;;;;;;;16.17;10.80;;;76.80;2227.20;;;;;;5013007;28;20040;-70
2021/03/10 01:37:52;;;;;;;17.30;11.82;;;76.80;2227.20;;;;;;5012676;28;20053;-71
2021/03/10 01:40:19;;;;;;;16.70;11.63;;;76.80;2227.20;;;;;;5012236;28;20029;-69
2021/03/10 01:42:45;;;;;;;24.17;15.68;;;76.80;2227.20;;;;;;5012769;28;20033;-70
2021/03/10 01:45:12;;;;;;;21.20;14.57;;;76.80;2227.20;;;;;;5012607;28;20033;-69
2021/03/10 01:47:43;;;;;;;19.13;12.63;;;76.80;2227.20;;;;;;5012706;28;20360;-71
2021/03/10 01:50:10;;;;;;;17.48;11.05;;;52.10;2227.20;;;;;;5012298;28;20422;-70
2021/03/10 01:52:36;;;;;;;16.38;10.93;;;52.10;2227.20;;;;;;5012329;28;20487;-70
2021/03/10 01:55:02;;;;;;;15.05;10.32;;;52.00;2227.20;;;;;;5012595;28;20493;-69
2021/03/10 01:57:28;;;;;;;17.60;12.38;;;52.10;2227.20;;;;;;5012187;28;20475;-70
2021/03/10 01:59:56;;;;;;;14.13;9.88;;;52.10;2227.20;;;;;;5012036;28;20068;-71
2021/03/10 02:02:22;;;;;;;13.90;9.65;;;52.00;2227.20;;;;;;5012848;28;20096;-69
2021/03/10 02:04:47;;;;;;;14.35;9.55;;;52.00;2227.20;;;;;;5011743;28;20478;-70
2021/03/10 02:07:41;;;;;;;13.93;9.00;;;52.00;2227.20;;;;;;5012266;28;20033;-71
2021/03/10 02:10:22;;;;;;;14.80;9.43;;;52.00;2227.20;;;;;;5011874;28;20022;-74
2021/03/10 02:12:59;;;;;;;14.55;9.60;;;52.00;2227.20;;;;;;5010546;28;20478;-71
2021/03/10 02:15:55;;;;;;;14.18;9.40;;;51.90;2227.20;;;;;;5012011;28;20382;-70
2021/03/10 02:18:32;;;;;;;14.93;9.52;;;51.90;2227.20;;;;;;5000899;28;20127;-69
2021/03/10 02:21:00;;;;;;;14.45;9.55;;;51.80;2227.20;;;;;;5011917;28;20109;-70
2021/03/10 02:24:02;;;;;;;14.23;9.95;;;51.80;2227.20;;;;;;5012433;28;20037;-70
2021/03/10 02:26:51;;;;;;;24.83;14.75;;;51.80;2227.20;;;;;;5011602;28;20030;-70
2021/03/10 02:29:18;;;;;;;28.33;17.30;;;51.80;2227.20;;;;;;5011670;28;20073;-70
2021/03/10 02:31:47;;;;;;;27.80;17.30;;;51.80;2227.20;;;;;;5012073;28;20444;-71
2021/03/10 02:34:15;;;;;;;20.83;14.17;;;51.80;2227.20;;;;;;5011881;28;20467;-70
2021/03/10 02:36:42;;;;;;;18.02;12.63;;;51.80;2227.20;;;;;;5011605;28;20101;-70
2021/03/10 02:39:09;;;;;;;15.75;10.20;;;51.70;2227.20;;;;;;5011493;28;20034;-71
2021/03/10 02:41:35;;;;;;;15.90;10.35;;;51.70;2227.20;;;;;;5012462;28;20059;-71
2021/03/10 02:44:03;;;;;;;15.25;10.52;;;51.80;2227.20;;;;;;5011157;28;20123;-69
2021/03/10 02:46:29;;;;;;;16.27;10.90;;;51.70;2227.20;;;;;;5011401;28;20033;-69
2021/03/10 02:48:55;;;;;;;15.07;10.43;;;51.70;2227.20;;;;;;5010954;28;20018;-70
2021/03/10 02:51:21;;;;;;;16.10;10.80;;;51.80;2227.20;;;;;;5011230;28;20418;-70
2021/03/10 02:53:49;;;;;;;15.68;9.75;;;51.80;2227.20;;;;;;5011094;28;20112;-70
2021/03/10 02:56:15;;;;;;;12.70;9.48;;;51.70;2227.20;;;;;;5011221;28;20021;-71
2021/03/10 02:58:42;;;;;;;15.52;10.43;;;51.60;2227.20;;;;;;5002065;28;20055;-71
2021/03/10 03:01:13;;;;;;;14.80;9.88;;;51.70;2227.20;;;;;;5009895;28;20022;-71
2021/03/10 03:03:39;;;;;;;14.50;9.50;;;51.60;2227.20;;;;;;5011263;28;20046;-70
2021/03/10 03:06:05;;;;;;;14.35;9.82;;;51.60;2227.20;;;;;;5011160;28;20037;-71
2021/03/10 03:08:31;;;;;;;13.70;9.57;;;51.60;2227.20;;;;;;5010739;28;20025;-70
2021/03/10 03:10:58;;;;;;;13.27;9.35;;;51.60;2227.20;;;;;;5011318;28;20030;-69
2021/03/10 03:13:27;;;;;;;15.38;10.32;;;51.70;2227.20;;;;;;5011166;28;20069;-70
2021/03/10 03:15:57;;;;;;;17.45;11.85;;;51.70;2227.20;;;;;;5009451;28;20029;-70
2021/03/10 03:18:24;;;;;;;;;;;51.70;2227.20;;;;;;4997907;28;20444;-69
2021/03/10 03:20:51;;;;;;;18.55;12.98;;;51.60;2227.20;;;;;;5011207;28;19914;-70
2021/03/10 03:23:20;;;;;;;14.68;10.57;;;51.70;2227.20;;;;;;5010877;28;20040;-69
2021/03/10 03:25:47;;;;;;;16.77;11.18;;;51.60;2227.20;;;;;;5011425;28;20042;-70
2021/03/10 03:28:19;;;;;;;15.52;10.82;;;51.60;2227.20;;;;;;5010825;28;20036;-70
2021/03/10 03:30:46;;;;;;;16.05;11.57;;;51.60;2227.20;;;;;;5010891;28;20021;-70
2021/03/10 03:33:18;;;;;;;16.63;11.05;;;51.60;2227.20;;;;;;5010437;28;20088;-70
2021/03/10 03:35:45;;;;;;;19.25;12.00;;;51.60;2227.20;;;;;;5011036;28;20372;-70
2021/03/10 03:38:12;;;;;;;19.23;13.57;;;51.60;2227.20;;;;;;5010695;28;20022;-70
2021/03/10 03:40:39;;;;;;;22.88;14.95;;;51.60;2227.20;;;;;;5009924;28;20033;-70
2021/03/10 03:43:09;;;;;;;26.35;17.75;;;51.60;2227.20;;;;;;5011193;28;20489;-70
2021/03/10 03:45:36;;;;;;;25.60;17.10;;;51.60;2227.20;;;;;;5010744;28;20363;-69
2021/03/10 03:48:01;;;;;;;20.85;13.52;;;51.60;2227.20;;;;;;5010813;28;20095;-70
2021/03/10 03:50:27;;;;;;;15.73;10.75;;;51.60;2227.20;;;;;;5010266;28;20017;-71
2021/03/10 03:52:54;;;;;;;15.15;10.32;;;51.60;2227.20;;;;;;5010867;28;20509;-71
2021/03/10 03:55:20;;;;;;;16.90;10.55;;;51.60;2227.20;;;;;;5010654;28;20037;-70
2021/03/10 03:57:46;;;;;;;15.65;9.93;;;51.70;2227.20;;;;;;5010712;28;20034;-70
2021/03/10 04:00:16;;;;;;;14.30;9.02;;;51.60;2227.20;;;;;;5010458;28;20050;-71
2021/03/10 04:02:43;;;;;;;14.32;9.00;;;51.60;2227.20;;;;;;5009301;28;20033;-70
2021/03/10 04:05:09;;;;;;;15.70;10.60;;;51.70;2227.20;;;;;;5010807;28;20037;-71
2021/03/10 04:07:49;;;;;;;17.50;11.18;;;51.60;2227.20;;;;;;5010206;28;20022;-70
2021/03/10 04:10:15;;;;;;;20.80;13.43;;;51.60;2227.20;;;;;;5009036;28;20034;-70
2021/03/10 04:12:41;;;;;;;30.98;20.60;;;51.60;2227.20;;;;;;5010330;28;20116;-70
2021/03/10 04:15:08;;;;;;;34.90;23.13;;;51.60;2227.20;;;;;;5010701;28;20021;-70
2021/03/10 04:17:34;;;;;;;32.65;22.00;;;51.60;2227.20;;;;;;5010004;28;20499;-70
2021/03/10 04:20:00;;;;;;;30.88;21.40;;;51.50;2227.20;;;;;;5010419;28;20033;-70
2021/03/10 04:22:25;;;;;;;30.65;20.27;;;51.50;2227.20;;;;;;5010514;28;20045;-71
2021/03/10 04:24:51;;;;;;;22.95;15.50;;;51.60;2227.20;;;;;;5010618;28;20029;-70
2021/03/10 04:27:17;;;;;;;20.80;12.85;;;51.60;2227.20;;;;;;5011078;28;20105;-70
2021/03/10 04:29:43;;;;;;;17.48;10.95;;;51.60;2227.20;;;;;;5013798;28;20368;-70
2021/03/10 04:32:08;;;;;;;32.58;18.98;;;51.70;2227.20;;;;;;5013745;28;20049;-70
2021/03/10 04:34:34;;;;;;;38.63;23.40;;;51.70;2227.20;;;;;;5013019;28;20034;-69
2021/03/10 04:37:00;;;;;;;29.48;18.35;;;51.60;2227.20;;;;;;5008142;28;20053;-70
2021/03/10 04:39:25;;;;;;;29.20;17.27;;;51.60;2227.20;;;;;;5001247;28;20030;-70
2021/03/10 04:41:51;;;;;;;23.10;14.82;;;51.50;2227.20;;;;;;5015118;28;20073;-70
2021/03/10 04:44:17;;;;;;;19.50;12.45;;;51.60;2227.20;;;;;;5015870;28;20470;-70
2021/03/10 04:46:42;;;;;;;21.92;14.45;;;51.60;2227.20;;;;;;5013285;28;20022;-70
2021/03/10 04:49:09;;;;;;;15.85;10.32;;;51.60;2227.20;;;;;;5013187;28;20026;-70
2021/03/10 04:51:36;;;;;;;18.17;11.93;;;51.70;2227.20;;;;;;5012422;28;20382;-70
2021/03/10 04:54:01;;;;;;;18.95;11.73;;;51.70;2227.20;;;;;;5013063;28;20037;-70
2021/03/10 04:56:27;;;;;;;18.85;12.48;;;51.70;2227.20;;;;;;5013100;28;20025;-70
2021/03/10 04:58:53;;;;;;;19.80;13.90;;;51.70;2227.20;;;;;;5011260;28;20108;-70
2021/03/10 05:01:19;;;;;;;25.67;18.08;;;51.70;2227.20;;;;;;5013261;28;20026;-69
2021/03/10 05:03:44;;;;;;;25.48;17.88;;;51.80;2227.20;;;;;;5013222;28;20387;-69
2021/03/10 05:06:10;;;;;;;20.67;13.98;;;51.80;2227.20;;;;;;5013203;28;20116;-70
2021/03/10 05:08:36;;;;;;;14.15;8.98;;;51.80;2227.20;;;;;;5012903;28;20033;-70
2021/03/10 05:11:03;;;;;;;12.30;8.63;;;51.80;2227.20;;;;;;5013019;28;20101;-68
2021/03/10 05:13:28;;;;;;;13.65;9.32;;;51.80;2227.20;;;;;;5012703;28;20411;-69
2021/03/10 05:15:54;;;;;;;17.30;12.52;;;51.80;2227.20;;;;;;5013250;28;20022;-73
2021/03/10 05:18:20;;;;;;;19.42;13.18;;;51.80;2227.20;;;;;;5013234;28;20172;-71
2021/03/10 05:20:45;;;;;;;17.83;13.15;;;51.80;2227.20;;;;;;5012766;28;20038;-69
2021/03/10 05:23:11;;;;;;;13.95;9.90;;;51.80;2227.20;;;;;;5013114;28;20026;-69
2021/03/10 05:25:37;;;;;;;11.82;8.75;;;51.80;2227.20;;;;;;5013567;28;20033;-69
2021/03/10 05:28:03;;;;;;;9.70;6.63;;;51.80;2227.20;;;;;;5012840;28;20032;-69
2021/03/10 05:30:29;;;;;;;9.15;5.95;;;51.80;2227.20;;;;;;5012854;28;20383;-70
2021/03/10 05:32:55;;;;;;;9.95;5.90;;;51.80;2227.20;;;;;;5012686;28;20026;-69
2021/03/10 05:35:21;;;;;;;14.15;9.15;;;51.80;2227.20;;;;;;5013073;28;20403;-69
2021/03/10 05:37:46;;;;;;;14.93;10.75;;;51.80;2227.20;;;;;;5012770;28;20418;-69
2021/03/10 05:40:14;;;;;;;21.48;14.60;;;51.80;2227.20;;;;;;5011631;28;20018;-70
2021/03/10 05:42:41;;;;;;;23.92;16.25;;;51.80;2227.20;;;;;;5012967;28;20037;-69
2021/03/10 05:45:09;;;;;;;24.70;17.27;;;51.70;2227.20;;;;;;5012597;28;20037;-70
2021/03/10 05:47:35;;;;;;;22.80;16.45;;;51.80;2227.20;;;;;;5012857;28;20030;-69
2021/03/10 05:50:01;;;;;;;19.83;14.32;;;51.80;2227.20;;;;;;5012222;28;20026;-69
2021/03/10 05:52:29;;;;;;;17.40;12.48;;;51.80;2227.20;;;;;;5012558;28;20034;-70
2021/03/10 05:54:59;;;;;;;18.88;13.32;;;51.80;2227.20;;;;;;5012377;28;20021;-69
2021/03/10 05:57:24;;;;;;;19.55;14.65;;;51.90;2227.20;;;;;;5012824;28;20038;-74
2021/03/10 05:59:50;;;;;;;19.33;14.18;;;51.90;2227.20;;;;;;5012197;28;20096;-69
2021/03/10 06:02:16;;;;;;;18.48;12.20;;;52.00;2227.20;;;;;;5012295;28;20033;-69
2021/03/10 06:04:43;;;;;;;12.75;9.00;;;52.00;2227.20;;;;;;5012591;28;20080;-69
2021/03/10 06:07:20;;;;;;;11.07;7.30;;;52.00;2227.20;;;;;;5011861;28;20101;-70
2021/03/10 06:10:04;;;;;;;8.30;5.85;;;52.10;2227.20;;;;;;5011931;28;20084;-71
2021/03/10 06:12:44;;;;;;;9.77;5.72;;;76.80;2227.20;;;;;;5011806;28;20046;-75
2021/03/10 06:15:13;;;;;;;9.88;6.93;;;76.80;2227.20;;;;;;5012456;28;20029;-73
2021/03/10 06:17:49;;;;;;;9.50;6.60;;;76.90;2227.20;;;;;;5011946;28;20034;-73
2021/03/10 06:20:24;;;;;;;9.50;6.40;;;76.90;2227.20;;;;;;5011827;28;20021;-70
2021/03/10 06:22:51;;;;;;;10.40;6.95;;;77.00;2227.20;;;;;;5011884;28;20026;-70
2021/03/10 06:25:17;;;;;;;10.50;7.75;;;77.10;2227.20;;;;;;5012645;28;20024;-70
2021/03/10 06:27:56;;;;;;;9.70;7.30;;;77.20;2227.20;;;;;;5011897;28;20104;-70
2021/03/10 06:30:42;;;;;;;12.93;8.85;;;77.20;2227.20;;;;;;5011740;28;20022;-74
2021/03/10 06:33:08;;;;;;;17.92;12.15;;;77.30;2227.20;;;;;;5011619;28;20033;-73
2021/03/10 06:35:36;;;;;;;19.08;13.13;;;77.40;2227.20;;;;;;5011724;28;20053;-70
2021/03/10 06:38:10;;;;;;;117.25;46.65;;;77.50;2227.20;;;;;;5012061;28;20104;-70
2021/03/10 06:40:50;;;;;;;68.55;31.83;;;77.50;2227.20;;;;;;5011171;28;20057;-70
2021/03/10 06:43:16;;;;;;;30.23;17.50;;;77.60;2227.20;;;;;;5011632;28;20030;-70
2021/03/10 06:45:42;;;;;;;24.30;15.57;;;77.60;2227.20;;;;;;5011670;28;20072;-70
2021/03/10 06:48:17;;;;;;;20.98;15.00;;;77.70;2227.20;;;;;;5011450;28;20030;-70
2021/03/10 06:50:43;;;;;;;14.55;10.73;;;77.70;2227.20;;;;;;5011192;28;20106;-70
2021/03/10 06:53:08;;;;;;;17.75;11.93;;;77.70;2227.20;;;;;;5011330;28;20105;-70
2021/03/10 06:55:44;;;;;;;20.17;14.05;;;77.70;2227.20;;;;;;5011393;28;20026;-70
2021/03/10 06:58:13;;;;;;;18.80;13.73;;;77.70;2227.20;;;;;;5011466;28;20463;-71
2021/03/10 07:00:38;;;;;;;17.25;12.80;;;102.40;2227.20;;;;;;5010959;28;20040;-70
2021/03/10 07:03:05;;;;;;;16.10;11.77;;;102.40;2227.20;;;;;;5011621;28;20105;-70
2021/03/10 07:05:31;;;;;;;20.63;13.98;;;102.50;2227.20;;;;;;5010971;28;20028;-71
2021/03/10 07:07:58;;;;;;;18.70;12.43;;;102.50;2227.20;;;;;;5011180;28;20022;-71
2021/03/10 07:10:26;;;;;;;37.00;23.35;;;102.50;2227.20;;;;;;5011345;28;20361;-70
2021/03/10 07:12:56;;;;;;;34.80;22.83;;;102.50;2227.20;;;;;;5011007;28;20046;-71
2021/03/10 07:15:22;;;;;;;26.27;18.10;;;102.60;2227.20;;;;;;5011067;28;20026;-71
2021/03/10 07:17:49;;;;;;;22.25;17.38;;;102.70;2227.20;;;;;;5010765;28;20041;-71
2021/03/10 07:20:15;;;;;;;20.52;15.27;;;102.80;2227.20;;;;;;5010848;28;20017;-70
2021/03/10 07:22:46;;;;;;;16.95;13.35;;;102.80;2227.20;;;;;;5010920;28;20033;-70
2021/03/10 07:25:20;;;;;;;;;;;102.90;2227.20;;;;;;5011782;28;20022;-72
2021/03/10 07:28:12;;;;;;;22.48;17.13;;;102.90;2227.20;;;;;;5010972;28;19960;-71
2021/03/10 07:30:56;;;;;;;22.45;17.33;;;103.00;2227.20;;;;;;5005825;28;20076;-74
2021/03/10 07:33:23;;;;;;;17.00;11.85;;;103.00;2227.20;;;;;;5001606;28;20026;-70
2021/03/10 07:35:53;;;;;;;17.80;13.05;;;103.10;2227.20;;;;;;5003734;28;20507;-70
2021/03/10 07:38:23;;;;;;;15.00;9.63;;;103.30;2227.20;;;;;;4993241;28;20033;-70
2021/03/10 07:41:02;;;;;;;12.15;8.23;;;128.00;2252.80;;;;;;5002511;28;20060;-70
2021/03/10 07:43:47;;;;;;;11.32;8.32;;;128.00;2252.80;;;;;;5010570;28;20034;-70
2021/03/10 07:46:34;;;;;;;11.00;7.72;;;128.00;2252.80;;;;;;4994964;28;20037;-70
2021/03/10 07:49:03;;;;;;;11.30;7.60;;;128.00;2252.80;;;;;;4992881;28;20085;-70
2021/03/10 07:51:35;;;;;;;14.63;10.30;;;128.00;2252.80;;;;;;4993854;28;20109;-72
2021/03/10 07:54:14;;;;;;;16.08;12.27;;;128.00;2252.80;;;;;;4992491;28;20077;-71
2021/03/10 07:56:39;;;;;;;14.38;10.02;;;128.10;2252.80;;;;;;5008011;28;20056;-70
2021/03/10 07:59:18;;;;;;;14.77;10.40;;;128.20;2252.80;;;;;;5009930;28;20050;-71
2021/03/10 08:01:44;;;;;;;17.63;12.30;;;128.20;2252.80;;;;;;5009966;28;20057;-70
2021/03/10 08:04:18;;;;;;;11.10;7.95;;;128.50;2252.80;;;;;;5013465;28;20017;-70
2021/03/10 08:06:49;;;;;;;11.57;8.45;;;128.60;2252.80;;;;;;5013748;28;20022;-70
2021/03/10 08:09:17;;;;;;;12.35;9.38;;;128.90;2252.80;;;;;;5012458;28;20022;-71
2021/03/10 08:11:45;;;;;;;14.95;10.40;;;153.60;2252.80;;;;;;5013677;28;20041;-71
2021/03/10 08:14:13;;;;;;;13.18;10.38;;;153.70;2252.80;;;;;;5013693;28;20018;-74
2021/03/10 08:16:43;;;;;;;15.13;11.13;;;153.80;2252.80;;;;;;5014309;28;20056;-73
2021/03/10 08:19:10;;;;;;;17.08;12.50;;;153.60;2252.80;;;;;;5013806;28;20025;-73
2021/03/10 08:21:46;;;;;;;15.82;11.88;;;153.80;2252.80;;;;;;5014210;28;20025;-71
2021/03/10 08:24:12;;;;;;;16.92;12.00;;;153.80;2252.80;;;;;;5011930;28;20026;-72
2021/03/10 08:26:40;;;;;;;13.93;10.35;;;153.80;2252.80;;;;;;5013155;28;20017;-72
2021/03/10 08:29:05;;;;;;;14.00;10.20;;;153.90;2252.80;;;;;;5012716;28;20554;-72
2021/03/10 08:31:45;;;;;;;12.73;9.45;;;153.80;2252.80;;;;;;5000060;28;20118;-72
2021/03/10 08:34:11;;;;;;;17.13;13.10;;;153.80;2252.80;;;;;;4995221;28;20022;-72
2021/03/10 08:36:37;;;;;;;15.98;12.93;;;153.60;2252.80;;;;;;5012268;28;20029;-72
2021/03/10 08:39:21;;;;;;;15.10;11.85;;;153.70;2252.80;;;;;;5013560;28;20014;-73
2021/03/10 08:41:55;;;;;;;13.38;10.05;;;153.60;2252.80;;;;;;5013525;28;20046;-73
2021/03/10 08:44:23;;;;;;;13.93;10.40;;;128.90;2252.80;;;;;;5014244;28;20032;-72
2021/03/10 08:46:52;;;;;;;13.50;10.10;;;128.90;2252.80;;;;;;5013615;28;20018;-72
2021/03/10 08:49:23;;;;;;;13.02;9.52;;;128.90;2252.80;;;;;;5013210;28;20076;-73
2021/03/10 08:51:50;;;;;;;12.15;8.43;;;128.80;2252.80;;;;;;5013656;28;20054;-72
2021/03/10 08:54:17;;;;;;;11.93;8.32;;;128.80;2252.80;;;;;;5013666;28;20026;-73
2021/03/10 08:56:50;;;;;;;12.45;8.90;;;153.60;2252.80;;;;;;5013411;28;20022;-72
2021/03/10 08:59:16;;;;;;;11.98;8.75;;;153.80;2252.80;;;;;;5013371;28;20502;-72
2021/03/10 09:01:51;;;;;;;10.93;8.50;;;153.80;2252.80;;;;;;5013131;28;20026;-71
2021/03/10 09:04:27;;;;;;;14.07;9.70;;;154.00;2252.80;;;;;;5013645;28;20049;-73
2021/03/10 09:06:56;;;;;;;13.85;9.07;;;154.10;2252.80;;;;;;5012931;28;20061;-73
2021/03/10 09:09:23;;;;;;;12.67;8.83;;;154.20;2252.80;;;;;;5013231;28;20026;-72
2021/03/10 09:11:49;;;;;;;16.52;10.68;;;154.20;2252.80;;;;;;5013020;28;20038;-73
2021/03/10 09:14:15;;;;;;;16.40;11.63;;;154.20;2252.80;;;;;;5011703;28;20033;-76
2021/03/10 09:16:54;;;;;;;15.68;10.85;;;154.10;2252.80;;;;;;5013068;28;20029;-78
2021/03/10 09:19:34;;;;;;;14.00;10.60;;;154.00;2252.80;;;;;;5012671;28;20026;-71
2021/03/10 09:22:12;;;;;;;16.08;12.10;;;153.90;2252.80;;;;;;5013316;28;20029;-73
2021/03/10 09:24:51;;;;;;;17.80;12.00;;;153.70;2252.80;;;;;;5013253;28;20045;-72
2021/03/10 09:27:22;;;;;;;13.00;9.93;;;153.70;2252.80;;;;;;5013174;28;20018;-73
2021/03/10 09:29:48;;;;;;;16.52;10.55;;;153.80;2252.80;;;;;;5012417;28;20030;-71
2021/03/10 09:32:14;;;;;;;16.65;10.90;;;153.80;2252.80;;;;;;5012794;28;20054;-72
2021/03/10 09:34:40;;;;;;;19.33;11.77;;;153.80;2252.80;;;;;;5012878;28;20022;-72
2021/03/10 09:37:12;;;;;;;18.40;12.55;;;153.80;2252.80;;;;;;5012941;28;20029;-72
2021/03/10 09:39:44;;;;;;;24.33;16.85;;;153.70;2252.80;;;;;;5012590;28;20430;-73
2021/03/10 09:42:10;;;;;;;24.00;17.23;;;153.70;2252.80;;;;;;5007362;28;20053;-73
2021/03/10 09:44:52;;;;;;;34.17;25.58;;;153.70;2252.80;;;;;;5012557;28;20073;-73
2021/03/10 09:47:23;;;;;;;34.42;25.13;;;153.70;2252.80;;;;;;5012597;28;20021;-73
2021/03/10 09:49:55;;;;;;;25.80;20.40;;;153.70;2252.80;;;;;;5012219;28;20500;-73
2021/03/10 09:52:50;;;;;;;22.25;16.90;;;153.80;2252.80;;;;;;5012748;28;20040;-74
2021/03/10 09:55:20;;;;;;;17.67;12.57;;;153.80;2252.80;;;;;;5007588;28;20088;-72
2021/03/10 09:57:46;;;;;;;15.80;11.10;;;153.90;2252.80;;;;;;5012423;28;20356;-73
2021/03/10 10:00:21;;;;;;;18.00;13.20;;;153.90;2252.80;;;;;;5012158;28;20344;-73
2021/03/10 10:02:48;;;;;;;17.27;12.23;;;153.90;2252.80;;;;;;5012053;28;20133;-72
2021/03/10 10:05:28;;;;;;;18.00;12.85;;;153.90;2252.80;;;;;;5012101;28;20093;-72
2021/03/10 10:07:57;;;;;;;39.20;24.58;;;154.10;2252.80;;;;;;5012062;28;20049;-72
2021/03/10 10:10:25;;;;;;;35.30;23.88;;;154.20;2252.80;;;;;;5012138;28;20116;-73
2021/03/10 10:12:53;;;;;;;35.22;24.73;;;154.00;2252.80;;;;;;5011796;28;20088;-72
2021/03/10 10:15:21;;;;;;;60.15;35.28;;;154.00;2252.80;;;;;;5012562;28;20056;-73
2021/03/10 10:17:49;;;;;;;51.38;32.00;;;154.00;2252.80;;;;;;5011895;28;20050;-73
2021/03/10 10:20:17;;;;;;;65.10;38.42;;;154.00;2252.80;;;;;;5011922;28;20018;-72
2021/03/10 10:22:44;;;;;;;26.88;17.65;;;153.80;2252.80;;;;;;5012098;28;20414;-73
2021/03/10 10:25:12;;;;;;;38.20;26.92;;;153.70;2252.80;;;;;;5011547;28;20106;-72
2021/03/10 10:27:39;;;;;;;29.42;19.20;;;128.90;2252.80;;;;;;5011495;28;20653;-73
2021/03/10 10:30:06;;;;;;;23.35;16.15;;;128.70;2252.80;;;;;;5011563;28;20030;-73
2021/03/10 10:32:31;;;;;;;29.50;18.75;;;128.60;2252.80;;;;;;5011383;28;20088;-72
2021/03/10 10:34:57;;;;;;;23.65;16.00;;;128.60;2252.80;;;;;;5011824;28;20026;-73
2021/03/10 10:37:23;;;;;;;25.38;17.88;;;128.70;2252.80;;;;;;5011626;28;20057;-73
2021/03/10 10:39:49;;;;;;;24.73;17.75;;;128.90;2252.80;;;;;;5011524;28;20018;-73
2021/03/10 10:42:15;;;;;;;27.52;19.52;;;128.90;2252.80;;;;;;5011872;28;20049;-72
2021/03/10 10:44:41;;;;;;;29.50;19.92;;;128.80;2252.80;;;;;;5011560;28;20037;-72
2021/03/10 10:47:07;;;;;;;24.08;17.65;;;128.60;2252.80;;;;;;5011518;28;20410;-73
2021/03/10 10:49:32;;;;;;;21.75;16.50;;;128.70;2252.80;;;;;;5011056;28;20513;-73
2021/03/10 10:51:58;;;;;;;24.02;17.30;;;128.90;2252.80;;;;;;5011332;28;20384;-72
2021/03/10 10:54:24;;;;;;;23.83;16.13;;;128.90;2252.80;;;;;;5011449;28;20387;-73
2021/03/10 10:56:51;;;;;;;24.73;17.73;;;128.90;2252.80;;;;;;5011423;28;20148;-73
2021/03/10 10:59:17;;;;;;;26.58;16.80;;;128.90;2252.80;;;;;;5011155;28;20089;-73
2021/03/10 11:01:43;;;;;;;22.88;15.80;;;128.80;2252.80;;;;;;5011289;28;20034;-73
2021/03/10 11:04:11;;;;;;;26.13;17.85;;;128.80;2252.80;;;;;;5011414;28;20168;-73
2021/03/10 11:06:37;;;;;;;20.55;14.77;;;128.80;2252.80;;;;;;5011152;28;20037;-73
2021/03/10 11:09:03;;;;;;;23.50;16.45;;;128.70;2252.80;;;;;;5010814;28;20022;-73
2021/03/10 11:11:28;;;;;;;22.95;14.93;;;128.70;2252.80;;;;;;5011346;28;20034;-72
2021/03/10 11:13:54;;;;;;;21.83;14.85;;;128.70;2252.80;;;;;;5011394;28;20053;-73
2021/03/10 11:16:21;;;;;;;27.67;18.42;;;128.60;2252.80;;;;;;5011048;28;20113;-73
2021/03/10 11:18:47;;;;;;;48.08;28.15;;;128.60;2252.80;;;;;;5010750;28;20022;-73
2021/03/10 11:21:13;;;;;;;29.20;19.13;;;128.70;2252.80;;;;;;5011057;28;20025;-73
2021/03/10 11:23:38;;;;;;;30.20;20.98;;;128.70;2252.80;;;;;;5008830;28;20044;-69
2021/03/10 11:26:04;;;;;;;23.40;16.23;;;128.60;2252.80;;;;;;5003304;28;20026;-75
2021/03/10 11:28:30;;;;;;;21.40;16.08;;;128.70;2252.80;;;;;;5010518;28;20053;-71
2021/03/10 11:30:55;;;;;;;20.25;14.18;;;128.70;2252.80;;;;;;5000018;28;20426;-72
2021/03/10 11:33:21;;;;;;;38.85;23.77;;;128.80;2252.80;;;;;;4992160;28;20042;-71
2021/03/10 11:35:47;;;;;;;25.38;18.00;;;128.90;2252.80;;;;;;4991484;28;20022;-72
2021/03/10 11:38:12;;;;;;;24.70;17.40;;;128.90;2252.80;;;;;;4995770;28;20026;-72
2021/03/10 11:40:38;;;;;;;23.42;16.17;;;128.90;2252.80;;;;;;5005661;28;20026;-71
2021/03/10 11:43:04;;;;;;;24.73;18.13;;;153.70;2252.80;;;;;;4994571;28;20054;-78
2021/03/10 11:45:30;;;;;;;21.38;14.73;;;153.70;2252.80;;;;;;4993104;28;20023;-74
2021/03/10 11:47:56;;;;;;;22.75;16.58;;;153.70;2252.80;;;;;;4992375;28;20030;-70
2021/03/10 11:50:22;;;;;;;23.58;16.38;;;153.70;2252.80;;;;;;4992072;28;20045;-73
2021/03/10 11:52:48;;;;;;;24.35;16.63;;;153.70;2252.80;;;;;;4992117;28;20022;-73
2021/03/10 11:55:14;;;;;;;26.52;18.25;;;153.70;2252.80;;;;;;4991601;28;20041;-71
2021/03/10 11:57:41;;;;;;;27.38;18.52;;;153.70;2252.80;;;;;;4989867;28;20109;-80
2021/03/10 12:00:07;;;;;;;40.30;25.85;;;153.90;2252.80;;;;;;4993609;28;20479;-71
2021/03/10 12:02:33;;;;;;;28.92;19.40;;;154.00;2252.80;;;;;;4999275;28;20029;-71
2021/03/10 12:04:59;;;;;;;32.85;22.35;;;154.00;2252.80;;;;;;5010955;28;20030;-75
2021/03/10 12:07:25;;;;;;;30.40;20.65;;;154.10;2252.80;;;;;;5010545;28;20033;-72
2021/03/10 12:09:51;;;;;;;26.30;18.38;;;154.10;2252.80;;;;;;5011120;28;20126;-74
2021/03/10 12:12:17;;;;;;;27.58;17.52;;;154.30;2252.80;;;;;;5010479;28;20507;-72